sim
Sign-in with your pilot id or email,
or register
Callsign
Passwort

Schedule Details

Flight Number: DLH2564
Departure: Munich Airport (EDDM) at 10:30
Arrival: St. Petersburg Pulkovo Airport (ULLI) at 13:15
Route: Lufthansa Passenger Schedule. Enter filed route here before submitting Pirep.

Weather Information
Getting current METAR information for EDDM 210320Z 15001KT CAVOK 08/07 Q1016 NOSIG
Getting current METAR information for ULLI 210300Z 26004MPS 220V290 9999 SCT016CB BKN030 12/10 Q1010 R28L/290050 NOSIG

Schedule Frequency

Route Map